Time;durP1;ratioP1;P1;durP2;ratioP2;P2;SDS_P1;SDS_P2;PMS_P1;PMS_P2;Temp;Humidity;BMP_temperature;BMP_pressure;BME280_temperature;BME280_humidity;BME280_pressure;Samples;Min_cycle;Max_cycle;Signal;HPM_P1;HPM_P2
2021/09/07 00:00:11;;;;;;;23.42;13.48;;;15.90;99.90;;;;;;5044843;28;20042;-67
2021/09/07 00:02:37;;;;;;;17.15;12.02;;;15.90;99.90;;;;;;5046217;28;20042;-67
2021/09/07 00:05:03;;;;;;;20.80;12.25;;;15.90;99.90;;;;;;5043512;28;20051;-67
2021/09/07 00:07:29;;;;;;;23.85;12.32;;;15.90;99.90;;;;;;5036196;28;20096;-67
2021/09/07 00:09:54;;;;;;;19.67;12.63;;;16.00;99.90;;;;;;5040711;28;20053;-67
2021/09/07 00:12:20;;;;;;;22.98;13.52;;;16.00;99.90;;;;;;5037940;28;20040;-66
2021/09/07 00:14:46;;;;;;;17.45;12.93;;;16.00;99.90;;;;;;5052025;28;20049;-67
2021/09/07 00:17:12;;;;;;;19.17;13.18;;;16.00;99.90;;;;;;5033516;28;20056;-67
2021/09/07 00:19:39;;;;;;;16.38;11.77;;;16.00;99.90;;;;;;5042634;28;20069;-67
2021/09/07 00:22:05;;;;;;;21.08;13.55;;;16.00;99.90;;;;;;5045933;28;20041;-67
2021/09/07 00:24:31;;;;;;;18.13;13.02;;;16.00;99.90;;;;;;5042634;28;20057;-67
2021/09/07 00:26:58;;;;;;;21.17;13.23;;;16.00;99.90;;;;;;5036722;28;20038;-67
2021/09/07 00:29:24;;;;;;;19.80;13.65;;;16.10;99.90;;;;;;5044857;28;20045;-67
2021/09/07 00:31:50;;;;;;;21.52;13.18;;;16.00;99.90;;;;;;5038659;28;20121;-66
2021/09/07 00:34:16;;;;;;;24.52;15.13;;;16.10;99.90;;;;;;5041001;28;20045;-67
2021/09/07 00:36:41;;;;;;;20.55;14.00;;;16.10;99.90;;;;;;5037784;28;20057;-67
2021/09/07 00:39:09;;;;;;;22.02;13.75;;;16.10;99.90;;;;;;5042141;28;20064;-67
2021/09/07 00:41:37;;;;;;;20.48;13.75;;;16.10;99.90;;;;;;5041841;28;20052;-67
2021/09/07 00:44:23;;;;;;;21.63;14.02;;;16.10;99.90;;;;;;5042076;28;20570;-67
2021/09/07 00:46:56;;;;;;;20.63;14.18;;;16.10;99.90;;;;;;5039624;28;20457;-67
2021/09/07 00:49:24;;;;;;;18.20;13.48;;;16.10;99.90;;;;;;5044669;28;20045;-67
2021/09/07 00:51:51;;;;;;;22.77;14.23;;;16.10;99.90;;;;;;5040436;28;20041;-67
2021/09/07 00:54:19;;;;;;;20.40;13.50;;;16.10;99.90;;;;;;5043985;28;20037;-67
2021/09/07 00:56:45;;;;;;;18.33;14.32;;;16.00;99.90;;;;;;5045272;28;20492;-66
2021/09/07 00:59:12;;;;;;;20.48;13.18;;;16.10;99.90;;;;;;5042847;28;20045;-67
2021/09/07 01:01:38;;;;;;;23.60;13.60;;;16.00;99.90;;;;;;5024036;28;20503;-67
2021/09/07 01:04:04;;;;;;;20.77;13.60;;;16.00;99.90;;;;;;5035405;28;20041;-66
2021/09/07 01:06:30;;;;;;;22.23;14.13;;;16.10;99.90;;;;;;5046448;28;20084;-66
2021/09/07 01:08:56;;;;;;;24.58;14.60;;;16.10;99.90;;;;;;5032203;28;20045;-66
2021/09/07 01:11:23;;;;;;;20.40;12.43;;;16.10;99.90;;;;;;5052335;28;20412;-66
2021/09/07 01:13:48;;;;;;;21.35;13.23;;;16.00;99.90;;;;;;5052243;28;20044;-67
2021/09/07 01:16:16;;;;;;;19.10;14.02;;;16.10;99.90;;;;;;5027934;28;20131;-67
2021/09/07 01:18:41;;;;;;;22.30;15.00;;;16.10;99.90;;;;;;5053704;28;20089;-67
2021/09/07 01:21:15;;;;;;;18.83;13.75;;;16.10;99.90;;;;;;5048175;28;20049;-67
2021/09/07 01:23:43;;;;;;;20.75;14.38;;;16.00;99.90;;;;;;5052205;28;20041;-67
2021/09/07 01:26:11;;;;;;;22.10;13.85;;;16.00;99.90;;;;;;5047490;28;20064;-67
2021/09/07 01:28:37;;;;;;;20.13;13.38;;;16.00;99.90;;;;;;5051377;28;20041;-66
2021/09/07 01:31:04;;;;;;;18.95;15.20;;;16.00;99.90;;;;;;5047163;28;20108;-66
2021/09/07 01:33:30;;;;;;;17.95;13.80;;;16.10;99.90;;;;;;5044074;28;20117;-66
2021/09/07 01:35:56;;;;;;;18.58;12.38;;;16.10;99.90;;;;;;5033783;28;21068;-66
2021/09/07 01:38:23;;;;;;;18.30;14.43;;;16.10;99.90;;;;;;5055126;28;20037;-66
2021/09/07 01:40:49;;;;;;;20.15;15.25;;;16.10;99.90;;;;;;5048426;28;20054;-66
2021/09/07 01:43:15;;;;;;;24.20;14.80;;;16.00;99.90;;;;;;5046794;28;20045;-66
2021/09/07 01:45:44;;;;;;;21.58;15.02;;;16.00;99.90;;;;;;5050055;28;20072;-66
2021/09/07 01:48:10;;;;;;;20.65;15.40;;;16.00;99.90;;;;;;5037421;28;20092;-66
2021/09/07 01:50:36;;;;;;;25.35;17.15;;;16.00;99.90;;;;;;5062136;28;20044;-65
2021/09/07 01:53:01;;;;;;;22.02;16.08;;;16.00;99.90;;;;;;5049233;28;20045;-66
2021/09/07 01:55:27;;;;;;;21.50;16.33;;;16.00;99.90;;;;;;5058952;28;20048;-66
2021/09/07 01:57:53;;;;;;;26.17;16.88;;;16.00;99.90;;;;;;5051488;28;20065;-66
2021/09/07 02:00:18;;;;;;;20.92;16.33;;;16.00;99.90;;;;;;5050991;28;20376;-66
2021/09/07 02:02:44;;;;;;;28.95;15.88;;;16.00;99.90;;;;;;5056876;28;20096;-66
2021/09/07 02:05:10;;;;;;;20.35;15.68;;;16.00;99.90;;;;;;5055372;28;20096;-66
2021/09/07 02:07:36;;;;;;;23.70;16.63;;;16.00;99.90;;;;;;5051810;28;20506;-66
2021/09/07 02:10:02;;;;;;;25.02;16.27;;;16.00;99.90;;;;;;5033918;28;20044;-66
2021/09/07 02:12:27;;;;;;;27.00;17.75;;;16.00;99.90;;;;;;5057667;28;20068;-66
2021/09/07 02:14:53;;;;;;;29.55;17.70;;;16.00;99.90;;;;;;5041498;28;20037;-66
2021/09/07 02:17:19;;;;;;;26.10;16.30;;;16.00;99.90;;;;;;5057457;28;20512;-66
2021/09/07 02:19:45;;;;;;;24.80;17.38;;;16.00;99.90;;;;;;5040228;28;20052;-66
2021/09/07 02:22:11;;;;;;;26.70;17.00;;;15.90;99.90;;;;;;5057782;28;20041;-67
2021/09/07 02:24:36;;;;;;;23.50;17.35;;;15.90;99.90;;;;;;5037722;28;20449;-66
2021/09/07 02:27:03;;;;;;;23.65;15.85;;;15.90;99.90;;;;;;5043302;28;20041;-66
2021/09/07 02:29:29;;;;;;;21.55;16.77;;;15.90;99.90;;;;;;5048425;28;20044;-66
2021/09/07 02:31:54;;;;;;;22.08;14.60;;;16.00;99.90;;;;;;5053821;28;20049;-66
2021/09/07 02:34:20;;;;;;;24.45;16.15;;;16.00;99.90;;;;;;5048063;28;20040;-67
2021/09/07 02:36:46;;;;;;;24.25;17.02;;;16.00;99.90;;;;;;5064124;28;20049;-67
2021/09/07 02:39:12;;;;;;;23.92;16.40;;;16.00;99.90;;;;;;5046828;28;20054;-68
2021/09/07 02:41:38;;;;;;;20.75;16.10;;;16.10;99.90;;;;;;5054316;28;20033;-67
2021/09/07 02:44:04;;;;;;;28.25;17.00;;;16.10;99.90;;;;;;5043791;28;20509;-67
2021/09/07 02:46:30;;;;;;;21.48;15.68;;;16.00;99.90;;;;;;5058092;28;20033;-67
2021/09/07 02:48:56;;;;;;;21.52;15.68;;;16.00;99.90;;;;;;5052965;28;20468;-67
2021/09/07 02:51:22;;;;;;;21.48;14.98;;;16.10;99.90;;;;;;5044019;28;20045;-67
2021/09/07 02:53:47;;;;;;;21.95;15.52;;;16.10;99.90;;;;;;5044419;28;20069;-67
2021/09/07 02:56:14;;;;;;;20.83;16.30;;;16.10;99.90;;;;;;5049177;28;20053;-68
2021/09/07 02:58:40;;;;;;;24.13;16.83;;;16.10;99.90;;;;;;5050561;28;20045;-68
2021/09/07 03:01:05;;;;;;;24.02;14.63;;;16.10;99.90;;;;;;5039596;28;20046;-68
2021/09/07 03:03:33;;;;;;;22.70;15.30;;;16.10;99.90;;;;;;5060293;28;20075;-68
2021/09/07 03:06:00;;;;;;;20.60;15.32;;;16.10;99.90;;;;;;5043762;28;20072;-68
2021/09/07 03:08:27;;;;;;;23.23;15.88;;;16.10;99.90;;;;;;5035779;28;20188;-67
2021/09/07 03:10:52;;;;;;;26.42;15.70;;;16.10;99.90;;;;;;5055347;28;20120;-67
2021/09/07 03:13:18;;;;;;;20.52;14.32;;;16.00;99.90;;;;;;5048840;28;20053;-67
2021/09/07 03:15:46;;;;;;;25.17;15.90;;;16.10;99.90;;;;;;5064784;28;20702;-69
2021/09/07 03:18:11;;;;;;;22.63;14.40;;;16.10;99.90;;;;;;5057054;28;20056;-67
2021/09/07 03:20:37;;;;;;;20.73;14.57;;;16.10;99.90;;;;;;5055696;28;20045;-68
2021/09/07 03:23:03;;;;;;;19.25;13.80;;;16.10;99.90;;;;;;5048964;28;20055;-67
2021/09/07 03:25:29;;;;;;;21.02;14.18;;;16.10;99.90;;;;;;5062622;28;20047;-68
2021/09/07 03:27:55;;;;;;;18.80;14.68;;;16.00;99.90;;;;;;5047854;28;20068;-66
2021/09/07 03:30:22;;;;;;;20.48;14.60;;;16.10;99.90;;;;;;5055052;28;20065;-66
2021/09/07 03:32:48;;;;;;;17.85;13.10;;;16.10;99.90;;;;;;5043592;28;20551;-66
2021/09/07 03:35:14;;;;;;;21.08;13.27;;;16.00;99.90;;;;;;5053069;28;20088;-66
2021/09/07 03:37:41;;;;;;;20.80;13.98;;;16.00;99.90;;;;;;5039832;28;20050;-67
2021/09/07 03:40:07;;;;;;;19.58;12.73;;;16.00;99.90;;;;;;5036485;28;20053;-66
2021/09/07 03:42:34;;;;;;;17.67;12.43;;;16.10;99.90;;;;;;5041439;28;20049;-66
2021/09/07 03:45:05;;;;;;;18.67;12.25;;;16.10;99.90;;;;;;5060852;28;20056;-66
2021/09/07 03:47:30;;;;;;;19.85;12.32;;;16.00;99.90;;;;;;5048336;28;20041;-66
2021/09/07 03:49:56;;;;;;;16.05;12.45;;;16.10;99.90;;;;;;5055387;28;20037;-66
2021/09/07 03:52:22;;;;;;;20.42;12.90;;;16.00;99.90;;;;;;5042947;28;20042;-66
2021/09/07 03:54:48;;;;;;;18.75;12.25;;;16.00;99.90;;;;;;5044195;28;20114;-66
2021/09/07 03:57:14;;;;;;;18.40;11.68;;;16.10;99.90;;;;;;5055273;28;20034;-66
2021/09/07 03:59:39;;;;;;;16.02;12.20;;;16.10;99.90;;;;;;5040809;28;20417;-67
2021/09/07 04:02:06;;;;;;;17.50;12.05;;;16.10;99.90;;;;;;5058678;28;20050;-66
2021/09/07 04:04:32;;;;;;;19.38;13.02;;;16.10;99.90;;;;;;5049841;28;20040;-68
2021/09/07 04:06:58;;;;;;;20.25;12.55;;;16.10;99.90;;;;;;5050126;28;20068;-66
2021/09/07 04:09:24;;;;;;;21.02;13.32;;;16.10;99.90;;;;;;5050734;28;20613;-66
2021/09/07 04:11:51;;;;;;;16.95;12.82;;;16.10;99.90;;;;;;5031922;28;20407;-66
2021/09/07 04:14:17;;;;;;;19.55;12.02;;;16.10;99.90;;;;;;5057585;28;20053;-66
2021/09/07 04:16:43;;;;;;;21.30;12.65;;;16.10;99.90;;;;;;5049748;28;20075;-66
2021/09/07 04:19:09;;;;;;;15.70;11.75;;;16.10;99.90;;;;;;5055303;28;20108;-66
2021/09/07 04:21:35;;;;;;;19.67;11.82;;;16.10;99.90;;;;;;5047364;28;20094;-66
2021/09/07 04:24:01;;;;;;;17.05;11.07;;;16.20;99.90;;;;;;5063586;28;20041;-66
2021/09/07 04:26:26;;;;;;;18.02;11.05;;;16.20;99.90;;;;;;5048414;28;20041;-66
2021/09/07 04:28:52;;;;;;;15.52;10.45;;;16.10;99.90;;;;;;5052295;28;20048;-66
2021/09/07 04:31:18;;;;;;;15.80;10.55;;;16.20;99.90;;;;;;5048581;28;20494;-66
2021/09/07 04:33:44;;;;;;;15.60;10.77;;;16.10;99.90;;;;;;5062900;28;20153;-66
2021/09/07 04:36:10;;;;;;;14.45;10.30;;;16.10;99.90;;;;;;5045261;28;20056;-66
2021/09/07 04:38:37;;;;;;;16.33;11.27;;;16.10;99.90;;;;;;5054575;28;20424;-66
2021/09/07 04:41:03;;;;;;;16.38;10.43;;;16.20;99.90;;;;;;5043818;28;20042;-66
2021/09/07 04:43:29;;;;;;;16.30;10.48;;;16.10;99.90;;;;;;5061882;28;20126;-66
2021/09/07 04:45:56;;;;;;;14.45;10.02;;;16.10;99.90;;;;;;5048005;28;20042;-66
2021/09/07 04:48:21;;;;;;;16.02;10.38;;;16.10;99.90;;;;;;5060192;28;20044;-66
2021/09/07 04:50:47;;;;;;;15.63;10.30;;;16.10;99.90;;;;;;5036073;28;20458;-66
2021/09/07 04:53:13;;;;;;;15.40;9.88;;;16.10;99.90;;;;;;5053137;28;20056;-66
2021/09/07 04:55:39;;;;;;;14.98;9.68;;;16.20;99.90;;;;;;5037609;28;20045;-65
2021/09/07 04:58:05;;;;;;;18.55;10.02;;;16.20;99.90;;;;;;5048622;28;20061;-66
2021/09/07 05:00:30;;;;;;;16.48;11.68;;;16.20;99.90;;;;;;5046163;28;20041;-66
2021/09/07 05:02:56;;;;;;;14.85;9.82;;;16.20;99.90;;;;;;5034839;28;20634;-66
2021/09/07 05:05:22;;;;;;;19.05;9.30;;;16.10;99.90;;;;;;5041822;28;20049;-67
2021/09/07 05:07:48;;;;;;;16.27;9.82;;;16.10;99.90;;;;;;5042552;28;20083;-66
2021/09/07 05:10:13;;;;;;;15.68;9.57;;;16.10;99.90;;;;;;5039682;28;20327;-66
2021/09/07 05:12:39;;;;;;;11.73;9.32;;;16.20;99.90;;;;;;5048885;28;20041;-66
2021/09/07 05:15:07;;;;;;;16.95;10.27;;;16.20;99.90;;;;;;5045146;28;20132;-66
2021/09/07 05:17:33;;;;;;;16.85;9.23;;;16.20;99.90;;;;;;5034998;28;20037;-66
2021/09/07 05:19:58;;;;;;;16.88;8.82;;;16.10;99.90;;;;;;5050163;28;20049;-66
2021/09/07 05:22:24;;;;;;;17.65;9.88;;;16.20;99.90;;;;;;5069553;28;20080;-67
2021/09/07 05:24:50;;;;;;;12.40;8.93;;;16.20;99.90;;;;;;5038643;28;20038;-67
2021/09/07 05:27:15;;;;;;;14.57;9.02;;;16.20;99.90;;;;;;5043228;28;20138;-66
2021/09/07 05:29:41;;;;;;;14.48;9.40;;;16.20;99.90;;;;;;5049648;28;20041;-67
2021/09/07 05:32:07;;;;;;;19.60;9.70;;;16.30;99.90;;;;;;5050826;28;20057;-67
2021/09/07 05:34:33;;;;;;;14.77;9.38;;;16.30;99.90;;;;;;5053162;28;20041;-66
2021/09/07 05:36:59;;;;;;;14.50;8.98;;;16.40;99.90;;;;;;5059843;28;20049;-66
2021/09/07 05:39:24;;;;;;;15.73;8.88;;;16.40;99.90;;;;;;5050737;28;20058;-66
2021/09/07 05:41:54;;;;;;;16.67;8.50;;;16.40;99.90;;;;;;5051754;28;20040;-66
2021/09/07 05:44:21;;;;;;;13.95;8.68;;;16.40;99.90;;;;;;5047067;28;20046;-66
2021/09/07 05:46:47;;;;;;;14.07;8.75;;;16.40;99.90;;;;;;5061861;28;20501;-66
2021/09/07 05:49:13;;;;;;;15.07;9.43;;;16.40;99.90;;;;;;5051049;28;20042;-67
2021/09/07 05:51:39;;;;;;;19.30;8.75;;;16.50;99.90;;;;;;5049959;28;20101;-67
2021/09/07 05:54:05;;;;;;;15.17;9.60;;;16.50;99.90;;;;;;5046800;28;20215;-68
2021/09/07 05:56:31;;;;;;;16.33;8.57;;;16.50;99.90;;;;;;5041041;28;20500;-67
2021/09/07 05:58:57;;;;;;;12.23;8.77;;;16.50;99.90;;;;;;5047963;28;20493;-68
2021/09/07 06:01:23;;;;;;;11.88;8.65;;;16.50;99.90;;;;;;5045016;28;20050;-68
2021/09/07 06:03:49;;;;;;;17.23;9.95;;;16.60;99.90;;;;;;5046978;28;20065;-68
2021/09/07 06:06:15;;;;;;;12.88;9.30;;;16.60;99.90;;;;;;5046936;28;20040;-68
2021/09/07 06:08:41;;;;;;;15.18;8.43;;;16.60;99.90;;;;;;5052088;28;20540;-68
2021/09/07 06:11:09;;;;;;;13.23;8.85;;;16.70;99.90;;;;;;5043310;28;20041;-68
2021/09/07 06:13:35;;;;;;;17.85;9.30;;;16.70;99.90;;;;;;5056599;28;20049;-68
2021/09/07 06:16:01;;;;;;;21.80;10.30;;;16.80;99.90;;;;;;5035014;28;20080;-68
2021/09/07 06:18:27;;;;;;;21.08;9.43;;;16.80;99.90;;;;;;5054209;28;20409;-68
2021/09/07 06:20:54;;;;;;;18.08;9.23;;;16.80;99.90;;;;;;5040725;28;20041;-68
2021/09/07 06:23:20;;;;;;;25.60;10.07;;;16.90;99.90;;;;;;5047453;28;20056;-69
2021/09/07 06:25:46;;;;;;;19.60;9.25;;;16.90;99.90;;;;;;5036474;28;20046;-67
2021/09/07 06:28:11;;;;;;;15.73;9.20;;;17.00;99.90;;;;;;5054504;28;20048;-67
2021/09/07 06:30:37;;;;;;;17.75;9.55;;;17.00;99.90;;;;;;5051938;28;20053;-67
2021/09/07 06:33:03;;;;;;;15.57;8.93;;;17.10;99.90;;;;;;5039792;28;20052;-68
2021/09/07 06:35:29;;;;;;;14.63;9.30;;;17.10;99.90;;;;;;5037781;28;20128;-67
2021/09/07 06:37:54;;;;;;;17.30;9.15;;;17.20;99.90;;;;;;5043677;28;20080;-67
2021/09/07 06:40:21;;;;;;;17.65;10.13;;;17.20;99.90;;;;;;5047130;28;20049;-67
2021/09/07 06:42:48;;;;;;;23.13;9.53;;;17.20;99.90;;;;;;5042115;28;20046;-66
2021/09/07 06:45:13;;;;;;;20.83;9.43;;;17.20;99.90;;;;;;5051215;28;20041;-67
2021/09/07 06:47:39;;;;;;;16.33;9.98;;;17.30;99.90;;;;;;5036461;28;20367;-66
2021/09/07 06:50:06;;;;;;;19.40;9.93;;;17.20;99.90;;;;;;5055781;28;20171;-68
2021/09/07 06:52:31;;;;;;;16.88;9.35;;;17.20;99.90;;;;;;5050075;28;20048;-69
2021/09/07 06:54:58;;;;;;;18.75;9.27;;;17.20;99.90;;;;;;5052018;28;20037;-66
2021/09/07 06:57:26;;;;;;;21.42;9.57;;;17.20;99.90;;;;;;5057934;28;20093;-66
2021/09/07 06:59:53;;;;;;;15.48;10.25;;;17.10;99.90;;;;;;5044006;28;20071;-67
2021/09/07 07:02:19;;;;;;;17.17;9.93;;;17.10;99.90;;;;;;5045196;28;20046;-67
2021/09/07 07:04:45;;;;;;;14.75;9.38;;;17.10;99.90;;;;;;5040069;28;20056;-67
2021/09/07 07:07:11;;;;;;;17.42;9.45;;;17.10;99.90;;;;;;5042879;28;20122;-67
2021/09/07 07:09:37;;;;;;;19.20;10.13;;;17.10;99.90;;;;;;5046167;28;20045;-67
2021/09/07 07:12:03;;;;;;;22.92;9.40;;;17.10;99.90;;;;;;5043100;28;20129;-67
2021/09/07 07:14:29;;;;;;;21.08;10.57;;;17.10;99.90;;;;;;5039689;28;20132;-68
2021/09/07 07:16:55;;;;;;;23.75;10.60;;;17.20;99.90;;;;;;5042242;28;20046;-68
2021/09/07 07:19:20;;;;;;;18.38;10.50;;;17.30;99.90;;;;;;5046904;28;20048;-68
2021/09/07 07:21:48;;;;;;;18.45;9.38;;;17.40;99.90;;;;;;5050464;28;23253;-68
2021/09/07 07:24:16;;;;;;;14.02;9.45;;;17.50;99.90;;;;;;5045310;28;20045;-68
2021/09/07 07:26:45;;;;;;;14.85;9.35;;;17.70;99.90;;;;;;5037675;28;20064;-68
2021/09/07 07:29:12;;;;;;;16.20;10.23;;;17.80;99.90;;;;;;5036450;28;20049;-69
2021/09/07 07:31:38;;;;;;;15.30;10.10;;;18.00;99.90;;;;;;5044715;28;20041;-68
2021/09/07 07:34:04;;;;;;;23.55;10.73;;;18.10;99.90;;;;;;5045251;28;20088;-68
2021/09/07 07:36:31;;;;;;;14.13;8.95;;;18.20;99.90;;;;;;5050479;28;20532;-68
2021/09/07 07:38:56;;;;;;;20.40;10.43;;;18.40;99.90;;;;;;5049001;28;20081;-68
2021/09/07 07:41:22;;;;;;;19.35;9.95;;;18.70;99.90;;;;;;5042583;28;20037;-68
2021/09/07 07:43:48;;;;;;;23.38;11.02;;;18.90;99.90;;;;;;5050326;28;20077;-68
2021/09/07 07:46:14;;;;;;;14.50;9.35;;;19.10;99.90;;;;;;5039694;28;20053;-68
2021/09/07 07:48:41;;;;;;;19.05;9.02;;;19.30;99.90;;;;;;5050408;28;20052;-67
2021/09/07 07:51:07;;;;;;;15.57;9.63;;;19.60;99.90;;;;;;5041288;28;21283;-68
2021/09/07 07:53:34;;;;;;;15.05;9.10;;;19.70;99.90;;;;;;5042231;28;20038;-68
2021/09/07 07:55:59;;;;;;;15.32;9.60;;;19.90;99.90;;;;;;5046411;28;20037;-68
2021/09/07 07:58:25;;;;;;;17.52;10.02;;;20.10;99.90;;;;;;5049585;28;20041;-68
2021/09/07 08:00:51;;;;;;;17.95;9.07;;;20.20;99.90;;;;;;5046281;28;20069;-68
2021/09/07 08:03:16;;;;;;;17.30;10.27;;;20.40;99.90;;;;;;5044071;28;20553;-68
2021/09/07 08:05:42;;;;;;;14.55;10.05;;;20.50;99.90;;;;;;5053836;28;20041;-68
2021/09/07 08:08:08;;;;;;;14.90;9.40;;;20.60;99.90;;;;;;5045670;28;20099;-68
2021/09/07 08:10:35;;;;;;;13.80;9.73;;;20.70;99.90;;;;;;5038347;28;20053;-68
2021/09/07 08:13:00;;;;;;;14.50;9.10;;;20.80;99.90;;;;;;5039274;28;20034;-68
2021/09/07 08:15:26;;;;;;;13.25;9.00;;;21.00;99.90;;;;;;5039920;28;20095;-68
2021/09/07 08:17:52;;;;;;;15.32;8.38;;;21.20;99.90;;;;;;5035950;28;20038;-68
2021/09/07 08:20:17;;;;;;;15.55;8.85;;;21.30;99.90;;;;;;5040904;28;20151;-67
2021/09/07 08:22:43;;;;;;;16.00;8.65;;;21.40;99.90;;;;;;5037239;28;20037;-68
2021/09/07 08:25:11;;;;;;;14.98;8.32;;;21.60;99.90;;;;;;5037182;28;20041;-67
2021/09/07 08:27:37;;;;;;;12.38;8.40;;;21.70;99.90;;;;;;5034142;28;20053;-68
2021/09/07 08:30:04;;;;;;;11.00;8.15;;;21.80;99.90;;;;;;5043081;28;20115;-68
2021/09/07 08:32:30;;;;;;;15.90;9.18;;;21.90;99.90;;;;;;5063000;28;20288;-68
2021/09/07 08:34:56;;;;;;;23.75;8.88;;;22.10;99.90;;;;;;5034129;28;20049;-68
2021/09/07 08:37:22;;;;;;;13.23;8.38;;;22.20;99.90;;;;;;5038454;28;20033;-69
2021/09/07 08:39:47;;;;;;;16.20;9.57;;;22.40;99.90;;;;;;5041452;28;20146;-69
2021/09/07 08:42:14;;;;;;;14.38;7.97;;;22.50;99.90;;;;;;5036259;28;20038;-69
2021/09/07 08:44:47;;;;;;;14.38;7.68;;;22.60;99.90;;;;;;5040854;28;20501;-69
2021/09/07 08:47:19;;;;;;;14.07;7.97;;;22.70;99.90;;;;;;5044241;28;20042;-69
2021/09/07 08:49:48;;;;;;;13.68;7.93;;;22.80;99.90;;;;;;5032679;28;20053;-68
2021/09/07 08:52:14;;;;;;;11.27;7.30;;;23.00;99.90;;;;;;5042659;28;20133;-69
2021/09/07 08:54:43;;;;;;;15.90;7.53;;;23.10;99.90;;;;;;5040985;28;20037;-69
2021/09/07 08:57:09;;;;;;;14.85;8.20;;;23.10;99.90;;;;;;5039247;28;20093;-69
2021/09/07 08:59:36;;;;;;;10.10;7.60;;;23.10;99.90;;;;;;5039894;28;20084;-69
2021/09/07 09:02:13;;;;;;;12.57;8.00;;;23.30;99.90;;;;;;5057566;28;20056;-69
2021/09/07 09:04:39;;;;;;;13.20;7.82;;;23.50;99.90;;;;;;5051259;28;20042;-69
2021/09/07 09:07:04;;;;;;;10.13;7.05;;;23.50;99.90;;;;;;5041657;28;20049;-69
2021/09/07 09:09:38;;;;;;;10.93;7.30;;;23.70;99.90;;;;;;5040964;28;20472;-69
2021/09/07 09:12:06;;;;;;;10.05;6.55;;;23.60;99.90;;;;;;5053721;28;20253;-69
2021/09/07 09:14:40;;;;;;;13.60;8.50;;;23.70;99.90;;;;;;5051663;28;20050;-69
2021/09/07 09:17:18;;;;;;;13.07;7.93;;;23.70;99.90;;;;;;5048330;28;20366;-68
2021/09/07 09:19:50;;;;;;;10.55;7.47;;;23.80;99.90;;;;;;5055753;28;20132;-68
2021/09/07 09:22:15;;;;;;;11.77;7.53;;;23.80;99.90;;;;;;5048841;28;20169;-68
2021/09/07 09:24:41;;;;;;;19.23;7.43;;;23.90;99.90;;;;;;5057468;28;20045;-68
2021/09/07 09:27:07;;;;;;;11.68;7.93;;;23.90;99.90;;;;;;5035238;28;20080;-68
2021/09/07 09:29:37;;;;;;;12.55;7.65;;;23.90;99.90;;;;;;5035189;28;20076;-68
2021/09/07 09:32:06;;;;;;;15.40;7.43;;;23.80;99.90;;;;;;5039473;28;20513;-68
2021/09/07 09:34:34;;;;;;;11.95;8.07;;;23.90;99.90;;;;;;5045277;28;20037;-68
2021/09/07 09:37:03;;;;;;;15.60;8.30;;;23.70;99.90;;;;;;5044384;28;20072;-68
2021/09/07 09:39:43;;;;;;;12.07;7.53;;;23.90;99.90;;;;;;5062200;28;20049;-68
2021/09/07 09:42:15;;;;;;;14.80;7.00;;;23.80;99.90;;;;;;5044986;28;20052;-68
2021/09/07 09:44:41;;;;;;;12.00;8.40;;;23.90;99.90;;;;;;5057577;28;20045;-68
2021/09/07 09:47:07;;;;;;;10.88;8.38;;;23.90;99.90;;;;;;5052308;28;20094;-68
2021/09/07 09:49:33;;;;;;;11.18;8.02;;;23.90;99.20;;;;;;5056442;28;20059;-68
2021/09/07 09:52:07;;;;;;;14.07;8.27;;;23.90;93.10;;;;;;5038453;28;20072;-68
2021/09/07 09:54:35;;;;;;;11.02;8.93;;;23.80;96.30;;;;;;5041339;28;20038;-67
2021/09/07 09:57:03;;;;;;;16.58;8.38;;;23.80;97.90;;;;;;5037271;28;20049;-68
2021/09/07 09:59:29;;;;;;;10.10;7.47;;;23.60;97.90;;;;;;5041349;28;20105;-68
2021/09/07 10:01:59;;;;;;;14.68;8.90;;;23.80;99.50;;;;;;5032461;28;20057;-68
2021/09/07 10:04:27;;;;;;;12.60;8.13;;;23.80;98.10;;;;;;5042026;28;20060;-68
2021/09/07 10:06:54;;;;;;;12.13;8.00;;;23.90;98.20;;;;;;5033244;28;20465;-68
2021/09/07 10:09:23;;;;;;;10.00;8.10;;;23.90;97.50;;;;;;5067020;28;20132;-68
2021/09/07 10:12:43;;;;;;;13.23;8.25;;;24.10;99.40;;;;;;5056007;28;20311;-68
2021/09/07 10:15:27;;;;;;;12.48;8.00;;;24.20;98.80;;;;;;5033588;28;20045;-68
2021/09/07 10:18:34;;;;;;;12.40;8.52;;;24.20;99.90;;;;;;5028177;28;20041;-68
2021/09/07 10:23:05;;;;;;;12.70;9.15;;;24.20;99.50;;;;;;5056295;28;20153;-68
2021/09/07 10:26:42;;;;;;;14.23;8.73;;;24.20;99.90;;;;;;5047299;28;20045;-68
2021/09/07 10:29:29;;;;;;;15.18;8.75;;;24.40;99.90;;;;;;5043761;28;20053;-68
2021/09/07 10:31:57;;;;;;;16.20;9.48;;;24.50;99.90;;;;;;5057840;28;20057;-68
2021/09/07 10:34:30;;;;;;;17.75;9.52;;;24.50;99.90;;;;;;5045612;28;20041;-68
2021/09/07 10:36:57;;;;;;;13.13;8.43;;;24.50;99.90;;;;;;5057361;28;20053;-68
2021/09/07 10:39:35;;;;;;;14.77;9.75;;;24.40;99.90;;;;;;5050353;28;20088;-68
2021/09/07 10:42:09;;;;;;;14.38;8.82;;;24.10;99.90;;;;;;5057658;28;20086;-68
2021/09/07 10:44:37;;;;;;;16.48;9.20;;;24.20;99.90;;;;;;5041586;28;20060;-68
2021/09/07 10:47:06;;;;;;;15.63;10.20;;;24.50;99.90;;;;;;5016108;28;20049;-67
2021/09/07 10:49:40;;;;;;;13.10;10.10;;;24.50;99.90;;;;;;5034790;28;20056;-68
2021/09/07 10:52:15;;;;;;;14.07;9.52;;;24.60;99.90;;;;;;5037934;28;20049;-68
2021/09/07 10:54:45;;;;;;;13.55;9.13;;;24.80;99.90;;;;;;5039163;28;20037;-67
2021/09/07 10:57:43;;;;;;;15.68;9.07;;;24.90;99.90;;;;;;5043856;28;20139;-68
2021/09/07 11:00:13;;;;;;;14.43;9.73;;;25.10;99.90;;;;;;5040362;28;20053;-69
2021/09/07 11:02:44;;;;;;;14.80;9.45;;;25.20;99.90;;;;;;5038828;28;20505;-63
2021/09/07 11:05:44;;;;;;;16.67;9.10;;;25.30;99.90;;;;;;5039544;28;20042;-64
2021/09/07 11:08:31;;;;;;;15.32;8.50;;;25.60;99.90;;;;;;5042620;28;20059;-66
2021/09/07 11:10:57;;;;;;;15.17;9.23;;;25.50;98.80;;;;;;5046381;28;20037;-67
2021/09/07 11:13:25;;;;;;;11.65;7.85;;;25.70;99.90;;;;;;5039351;28;20048;-66
2021/09/07 11:15:56;;;;;;;13.25;8.35;;;25.70;98.60;;;;;;5044609;28;20505;-61
2021/09/07 11:18:24;;;;;;;8.73;7.10;;;25.50;98.70;;;;;;5036991;28;20544;-61
2021/09/07 11:20:52;;;;;;;11.02;8.20;;;25.60;99.70;;;;;;5041422;28;20517;-60
2021/09/07 11:23:29;;;;;;;11.63;8.20;;;25.60;98.70;;;;;;5047304;28;20045;-62
2021/09/07 11:26:12;;;;;;;12.00;8.63;;;25.60;97.10;;;;;;5057764;28;20050;-61
2021/09/07 11:28:45;;;;;;;11.30;9.55;;;25.60;98.20;;;;;;5046024;28;20038;-61
2021/09/07 11:31:12;;;;;;;14.63;9.35;;;25.50;97.30;;;;;;5056097;28;20044;-61
2021/09/07 11:33:40;;;;;;;15.95;9.73;;;25.40;97.20;;;;;;5051981;28;20096;-62
2021/09/07 11:36:16;;;;;;;12.30;9.20;;;25.40;97.20;;;;;;5044938;28;20113;-67
2021/09/07 11:38:44;;;;;;;14.90;8.82;;;25.70;98.30;;;;;;5047182;28;20433;-70
2021/09/07 11:41:11;;;;;;;14.13;8.90;;;26.00;97.40;;;;;;5086191;28;20050;-63
2021/09/07 11:43:44;;;;;;;12.60;8.90;;;26.50;97.20;;;;;;5047412;28;20042;-66
2021/09/07 11:46:16;;;;;;;15.02;8.77;;;27.00;96.40;;;;;;5038719;28;20064;-70
2021/09/07 11:49:02;;;;;;;12.10;7.88;;;27.40;96.60;;;;;;5059311;28;20061;-71
2021/09/07 11:51:30;;;;;;;9.65;8.18;;;;;;;;;;5074452;28;20061;-66
2021/09/07 11:53:58;;;;;;;12.77;8.27;;;28.10;86.30;;;;;;5048173;28;20065;-67
2021/09/07 11:56:26;;;;;;;11.65;7.47;;;28.50;92.40;;;;;;5037385;28;20048;-72
2021/09/07 11:58:52;;;;;;;15.20;10.05;;;28.80;91.00;;;;;;5032849;28;20045;-72
2021/09/07 12:01:19;;;;;;;10.82;8.18;;;28.90;87.90;;;;;;5042812;28;20069;-71
2021/09/07 12:04:02;;;;;;;;;;;29.00;90.60;;;;;;5039066;28;20052;-70
2021/09/07 12:06:36;;;;;;;10.25;7.50;;;29.20;76.50;;;;;;5040578;28;19927;-68
2021/09/07 12:09:17;;;;;;;9.93;7.70;;;29.50;76.70;;;;;;5045012;28;20080;-75
2021/09/07 12:11:51;;;;;;;10.75;9.00;;;29.70;79.80;;;;;;5040328;28;20083;-68
2021/09/07 12:14:24;;;;;;;10.55;8.93;;;29.60;69.90;;;;;;5041975;28;20053;-69
2021/09/07 12:17:03;;;;;;;12.18;8.32;;;29.50;69.00;;;;;;5038163;28;20501;-68
2021/09/07 12:19:33;;;;;;;12.02;8.02;;;29.60;76.20;;;;;;5034936;28;20049;-68
2021/09/07 12:22:17;;;;;;;11.90;7.43;;;29.60;78.50;;;;;;5042346;28;20052;-68
2021/09/07 12:25:00;;;;;;;11.38;7.63;;;29.90;77.30;;;;;;5037362;28;20052;-68
2021/09/07 12:27:28;;;;;;;10.93;8.10;;;30.30;65.70;;;;;;5044253;28;20038;-68
2021/09/07 12:30:23;;;;;;;13.23;8.15;;;30.40;73.50;;;;;;5043208;28;20037;-68
2021/09/07 12:32:57;;;;;;;10.93;8.13;;;30.90;65.40;;;;;;4978665;28;20090;-67
2021/09/07 12:35:26;;;;;;;10.40;7.03;;;30.90;60.00;;;;;;4967711;28;20051;-67
2021/09/07 12:37:51;;;;;;;15.95;7.43;;;30.90;62.80;;;;;;4985885;28;20057;-69
2021/09/07 12:40:17;;;;;;;10.98;7.82;;;31.10;68.10;;;;;;4987949;28;20042;-71